Willow Grove, Pennsylvania
Current Conditions -  °F | °C
As of 4:54 AM on Saturday 22 Nov 2014 (Local Time) from KPNE Reporting Station
Clear Clear  
Wind Chill: 27°   Ceiling: Unl
Heat Index: 27°   Visibility: 10mi
Dew Point: 10°   Wind: 3mph
Humidity: 49%   Direction: 240°WSW
Pressure: 30.53"   Gusts: NA
Location:  40.15°N, 75.12°W
Report Text: KPNE 220954Z AUTO 24003KT 10SM CLR M03/M12 A3053 RMK AO2 SLP338 T10281122 TSNO
Loading
Personal Weather Stations






























Interactive Weather Map New forecast layout! Learn more

10-Day Weather Forecast

Advertisements
Track Severe Weather on mobile